sensor_id;sensor_type;location;lat;lon;timestamp;P1;durP1;ratioP1;P2;durP2;ratioP2
69256;SDS011;56376;53.356;-1.748;2024-02-16T00:00:11;2.78;;;2.58;;
69256;SDS011;56376;53.356;-1.748;2024-02-16T00:02:39;3.70;;;3.40;;
69256;SDS011;56376;53.356;-1.748;2024-02-16T00:05:06;4.90;;;3.45;;
69256;SDS011;56376;53.356;-1.748;2024-02-16T00:07:35;3.25;;;2.95;;
69256;SDS011;56376;53.356;-1.748;2024-02-16T00:10:02;3.40;;;2.70;;
69256;SDS011;56376;53.356;-1.748;2024-02-16T00:12:32;3.05;;;2.72;;
69256;SDS011;56376;53.356;-1.748;2024-02-16T00:14:59;2.40;;;2.20;;
69256;SDS011;56376;53.356;-1.748;2024-02-16T00:17:25;2.47;;;2.20;;
69256;SDS011;56376;53.356;-1.748;2024-02-16T00:20:01;2.25;;;2.05;;
69256;SDS011;56376;53.356;-1.748;2024-02-16T00:22:28;1.88;;;1.70;;
69256;SDS011;56376;53.356;-1.748;2024-02-16T00:24:54;2.80;;;2.00;;
69256;SDS011;56376;53.356;-1.748;2024-02-16T00:27:19;3.80;;;2.40;;
69256;SDS011;56376;53.356;-1.748;2024-02-16T00:29:45;2.13;;;1.90;;
69256;SDS011;56376;53.356;-1.748;2024-02-16T00:32:14;2.30;;;2.00;;
69256;SDS011;56376;53.356;-1.748;2024-02-16T00:34:40;2.13;;;1.95;;
69256;SDS011;56376;53.356;-1.748;2024-02-16T00:37:06;2.78;;;2.00;;
69256;SDS011;56376;53.356;-1.748;2024-02-16T00:39:36;2.22;;;2.03;;
69256;SDS011;56376;53.356;-1.748;2024-02-16T00:42:05;2.67;;;2.47;;
69256;SDS011;56376;53.356;-1.748;2024-02-16T00:44:31;4.88;;;2.65;;
69256;SDS011;56376;53.356;-1.748;2024-02-16T00:46:56;2.67;;;2.45;;
69256;SDS011;56376;53.356;-1.748;2024-02-16T00:49:22;3.03;;;2.72;;
69256;SDS011;56376;53.356;-1.748;2024-02-16T00:51:47;4.57;;;3.70;;
69256;SDS011;56376;53.356;-1.748;2024-02-16T00:54:15;4.18;;;3.63;;
69256;SDS011;56376;53.356;-1.748;2024-02-16T00:56:41;5.13;;;4.07;;
69256;SDS011;56376;53.356;-1.748;2024-02-16T00:59:06;4.85;;;4.35;;
69256;SDS011;56376;53.356;-1.748;2024-02-16T01:01:34;4.13;;;3.80;;
69256;SDS011;56376;53.356;-1.748;2024-02-16T01:04:02;4.03;;;3.72;;
69256;SDS011;56376;53.356;-1.748;2024-02-16T01:06:27;4.20;;;3.80;;
69256;SDS011;56376;53.356;-1.748;2024-02-16T01:08:53;5.45;;;4.95;;
69256;SDS011;56376;53.356;-1.748;2024-02-16T01:11:19;6.13;;;5.53;;
69256;SDS011;56376;53.356;-1.748;2024-02-16T01:13:45;6.40;;;5.80;;
69256;SDS011;56376;53.356;-1.748;2024-02-16T01:16:11;7.88;;;5.88;;
69256;SDS011;56376;53.356;-1.748;2024-02-16T01:18:36;7.93;;;7.18;;
69256;SDS011;56376;53.356;-1.748;2024-02-16T01:21:02;7.30;;;6.60;;
69256;SDS011;56376;53.356;-1.748;2024-02-16T01:23:30;6.47;;;5.88;;
69256;SDS011;56376;53.356;-1.748;2024-02-16T01:25:55;7.68;;;6.90;;
69256;SDS011;56376;53.356;-1.748;2024-02-16T01:28:21;6.47;;;5.88;;
69256;SDS011;56376;53.356;-1.748;2024-02-16T01:30:48;7.32;;;6.68;;
69256;SDS011;56376;53.356;-1.748;2024-02-16T01:33:14;7.68;;;6.95;;
69256;SDS011;56376;53.356;-1.748;2024-02-16T01:35:39;11.02;;;8.27;;
69256;SDS011;56376;53.356;-1.748;2024-02-16T01:38:05;9.68;;;8.55;;
69256;SDS011;56376;53.356;-1.748;2024-02-16T01:40:31;6.75;;;6.15;;
69256;SDS011;56376;53.356;-1.748;2024-02-16T01:42:57;7.15;;;6.55;;
69256;SDS011;56376;53.356;-1.748;2024-02-16T01:45:22;7.50;;;6.80;;
69256;SDS011;56376;53.356;-1.748;2024-02-16T01:47:49;6.55;;;5.97;;
69256;SDS011;56376;53.356;-1.748;2024-02-16T01:50:16;7.70;;;6.88;;
69256;SDS011;56376;53.356;-1.748;2024-02-16T01:52:44;6.15;;;5.55;;
69256;SDS011;56376;53.356;-1.748;2024-02-16T01:55:10;6.65;;;6.15;;
69256;SDS011;56376;53.356;-1.748;2024-02-16T01:57:40;7.50;;;6.80;;
69256;SDS011;56376;53.356;-1.748;2024-02-16T02:00:09;8.57;;;7.78;;
69256;SDS011;56376;53.356;-1.748;2024-02-16T02:02:35;7.53;;;6.82;;
69256;SDS011;56376;53.356;-1.748;2024-02-16T02:05:01;8.10;;;6.32;;
69256;SDS011;56376;53.356;-1.748;2024-02-16T02:07:27;8.15;;;7.35;;
69256;SDS011;56376;53.356;-1.748;2024-02-16T02:09:53;6.65;;;6.05;;
69256;SDS011;56376;53.356;-1.748;2024-02-16T02:12:18;6.60;;;6.00;;
69256;SDS011;56376;53.356;-1.748;2024-02-16T02:14:44;5.80;;;5.22;;
69256;SDS011;56376;53.356;-1.748;2024-02-16T02:17:11;5.57;;;5.18;;
69256;SDS011;56376;53.356;-1.748;2024-02-16T02:19:37;6.63;;;5.97;;
69256;SDS011;56376;53.356;-1.748;2024-02-16T02:22:02;5.45;;;5.05;;
69256;SDS011;56376;53.356;-1.748;2024-02-16T02:24:28;5.13;;;4.72;;
69256;SDS011;56376;53.356;-1.748;2024-02-16T02:26:53;5.50;;;5.00;;
69256;SDS011;56376;53.356;-1.748;2024-02-16T02:29:20;6.70;;;5.78;;
69256;SDS011;56376;53.356;-1.748;2024-02-16T02:31:45;5.93;;;5.32;;
69256;SDS011;56376;53.356;-1.748;2024-02-16T02:34:11;5.75;;;5.20;;
69256;SDS011;56376;53.356;-1.748;2024-02-16T02:36:37;5.53;;;4.80;;
69256;SDS011;56376;53.356;-1.748;2024-02-16T02:39:02;5.97;;;5.45;;
69256;SDS011;56376;53.356;-1.748;2024-02-16T02:41:28;5.45;;;4.95;;
69256;SDS011;56376;53.356;-1.748;2024-02-16T02:43:54;5.03;;;4.55;;
69256;SDS011;56376;53.356;-1.748;2024-02-16T02:46:20;5.00;;;4.43;;
69256;SDS011;56376;53.356;-1.748;2024-02-16T02:48:49;4.15;;;3.75;;
69256;SDS011;56376;53.356;-1.748;2024-02-16T02:51:16;4.30;;;4.00;;
69256;SDS011;56376;53.356;-1.748;2024-02-16T02:53:44;4.00;;;3.60;;
69256;SDS011;56376;53.356;-1.748;2024-02-16T02:56:09;5.78;;;3.35;;
69256;SDS011;56376;53.356;-1.748;2024-02-16T02:58:35;5.35;;;4.15;;
69256;SDS011;56376;53.356;-1.748;2024-02-16T03:01:00;4.22;;;3.83;;
69256;SDS011;56376;53.356;-1.748;2024-02-16T03:03:27;4.07;;;3.70;;
69256;SDS011;56376;53.356;-1.748;2024-02-16T03:05:54;3.58;;;3.28;;
69256;SDS011;56376;53.356;-1.748;2024-02-16T03:08:19;5.13;;;4.53;;
69256;SDS011;56376;53.356;-1.748;2024-02-16T03:10:45;4.03;;;3.63;;
69256;SDS011;56376;53.356;-1.748;2024-02-16T03:13:11;4.07;;;3.67;;
69256;SDS011;56376;53.356;-1.748;2024-02-16T03:15:38;2.95;;;2.72;;
69256;SDS011;56376;53.356;-1.748;2024-02-16T03:18:04;3.38;;;2.90;;
69256;SDS011;56376;53.356;-1.748;2024-02-16T03:20:33;3.50;;;2.58;;
69256;SDS011;56376;53.356;-1.748;2024-02-16T03:23:00;4.53;;;3.83;;
69256;SDS011;56376;53.356;-1.748;2024-02-16T03:25:25;4.50;;;4.10;;
69256;SDS011;56376;53.356;-1.748;2024-02-16T03:27:51;3.80;;;3.45;;
69256;SDS011;56376;53.356;-1.748;2024-02-16T03:30:18;4.32;;;3.92;;
69256;SDS011;56376;53.356;-1.748;2024-02-16T03:32:49;4.65;;;4.25;;
69256;SDS011;56376;53.356;-1.748;2024-02-16T03:35:15;4.88;;;4.47;;
69256;SDS011;56376;53.356;-1.748;2024-02-16T03:37:41;5.68;;;4.60;;
69256;SDS011;56376;53.356;-1.748;2024-02-16T03:40:07;5.15;;;4.65;;
69256;SDS011;56376;53.356;-1.748;2024-02-16T03:42:35;6.32;;;5.72;;
69256;SDS011;56376;53.356;-1.748;2024-02-16T03:45:02;5.55;;;5.05;;
69256;SDS011;56376;53.356;-1.748;2024-02-16T03:47:27;6.18;;;5.57;;
69256;SDS011;56376;53.356;-1.748;2024-02-16T03:49:53;6.40;;;5.80;;
69256;SDS011;56376;53.356;-1.748;2024-02-16T03:52:19;6.03;;;5.45;;
69256;SDS011;56376;53.356;-1.748;2024-02-16T03:54:44;6.28;;;5.68;;
69256;SDS011;56376;53.356;-1.748;2024-02-16T03:57:13;6.55;;;5.95;;
69256;SDS011;56376;53.356;-1.748;2024-02-16T03:59:39;6.32;;;5.75;;
69256;SDS011;56376;53.356;-1.748;2024-02-16T04:02:04;6.00;;;5.50;;
69256;SDS011;56376;53.356;-1.748;2024-02-16T04:04:30;8.20;;;7.50;;
69256;SDS011;56376;53.356;-1.748;2024-02-16T04:06:55;7.65;;;6.95;;
69256;SDS011;56376;53.356;-1.748;2024-02-16T04:09:21;9.45;;;8.55;;
69256;SDS011;56376;53.356;-1.748;2024-02-16T04:11:46;8.88;;;8.07;;
69256;SDS011;56376;53.356;-1.748;2024-02-16T04:14:12;10.88;;;9.77;;
69256;SDS011;56376;53.356;-1.748;2024-02-16T04:16:38;11.10;;;10.05;;
69256;SDS011;56376;53.356;-1.748;2024-02-16T04:19:03;11.68;;;10.57;;
69256;SDS011;56376;53.356;-1.748;2024-02-16T04:21:29;9.70;;;8.70;;
69256;SDS011;56376;53.356;-1.748;2024-02-16T04:23:54;8.98;;;8.15;;
69256;SDS011;56376;53.356;-1.748;2024-02-16T04:26:20;8.70;;;7.85;;
69256;SDS011;56376;53.356;-1.748;2024-02-16T04:28:45;8.63;;;7.82;;
69256;SDS011;56376;53.356;-1.748;2024-02-16T04:31:11;8.40;;;7.60;;
69256;SDS011;56376;53.356;-1.748;2024-02-16T04:33:36;8.60;;;7.80;;
69256;SDS011;56376;53.356;-1.748;2024-02-16T04:36:04;7.80;;;7.00;;
69256;SDS011;56376;53.356;-1.748;2024-02-16T04:38:32;6.97;;;6.32;;
69256;SDS011;56376;53.356;-1.748;2024-02-16T04:40:58;7.05;;;6.35;;
69256;SDS011;56376;53.356;-1.748;2024-02-16T04:43:23;6.78;;;6.18;;
69256;SDS011;56376;53.356;-1.748;2024-02-16T04:45:49;7.47;;;6.70;;
69256;SDS011;56376;53.356;-1.748;2024-02-16T04:48:14;5.43;;;4.93;;
69256;SDS011;56376;53.356;-1.748;2024-02-16T04:50:40;4.13;;;3.72;;
69256;SDS011;56376;53.356;-1.748;2024-02-16T04:53:06;2.67;;;2.45;;
69256;SDS011;56376;53.356;-1.748;2024-02-16T04:55:31;1.73;;;1.63;;
69256;SDS011;56376;53.356;-1.748;2024-02-16T04:57:57;1.95;;;1.33;;
69256;SDS011;56376;53.356;-1.748;2024-02-16T05:00:23;1.80;;;1.27;;
69256;SDS011;56376;53.356;-1.748;2024-02-16T05:02:50;3.55;;;1.60;;
69256;SDS011;56376;53.356;-1.748;2024-02-16T05:05:17;2.80;;;1.42;;
69256;SDS011;56376;53.356;-1.748;2024-02-16T05:07:42;1.88;;;1.20;;
69256;SDS011;56376;53.356;-1.748;2024-02-16T05:10:08;2.50;;;1.00;;
69256;SDS011;56376;53.356;-1.748;2024-02-16T05:12:34;4.30;;;1.27;;
69256;SDS011;56376;53.356;-1.748;2024-02-16T05:15:00;2.72;;;0.93;;
69256;SDS011;56376;53.356;-1.748;2024-02-16T05:17:25;2.80;;;0.98;;
69256;SDS011;56376;53.356;-1.748;2024-02-16T05:19:51;3.17;;;1.10;;
69256;SDS011;56376;53.356;-1.748;2024-02-16T05:22:18;2.15;;;1.00;;
69256;SDS011;56376;53.356;-1.748;2024-02-16T05:24:46;2.97;;;1.30;;
69256;SDS011;56376;53.356;-1.748;2024-02-16T05:27:12;2.50;;;1.10;;
69256;SDS011;56376;53.356;-1.748;2024-02-16T05:29:38;3.55;;;1.83;;
69256;SDS011;56376;53.356;-1.748;2024-02-16T05:32:03;1.92;;;0.90;;
69256;SDS011;56376;53.356;-1.748;2024-02-16T05:34:29;3.65;;;1.10;;
69256;SDS011;56376;53.356;-1.748;2024-02-16T05:37:02;2.10;;;1.20;;
69256;SDS011;56376;53.356;-1.748;2024-02-16T05:39:29;2.58;;;1.17;;
69256;SDS011;56376;53.356;-1.748;2024-02-16T05:41:57;2.53;;;1.40;;
69256;SDS011;56376;53.356;-1.748;2024-02-16T05:44:23;2.47;;;1.25;;
69256;SDS011;56376;53.356;-1.748;2024-02-16T05:46:48;3.90;;;1.65;;
69256;SDS011;56376;53.356;-1.748;2024-02-16T05:49:14;3.15;;;1.77;;
69256;SDS011;56376;53.356;-1.748;2024-02-16T05:51:41;2.70;;;1.60;;
69256;SDS011;56376;53.356;-1.748;2024-02-16T05:54:08;8.40;;;2.65;;
69256;SDS011;56376;53.356;-1.748;2024-02-16T05:56:34;5.78;;;2.30;;
69256;SDS011;56376;53.356;-1.748;2024-02-16T05:59:02;4.88;;;2.22;;
69256;SDS011;56376;53.356;-1.748;2024-02-16T06:01:29;9.23;;;2.00;;
69256;SDS011;56376;53.356;-1.748;2024-02-16T06:03:55;7.22;;;2.53;;
69256;SDS011;56376;53.356;-1.748;2024-02-16T06:06:20;5.57;;;1.90;;
69256;SDS011;56376;53.356;-1.748;2024-02-16T06:08:46;6.47;;;2.70;;
69256;SDS011;56376;53.356;-1.748;2024-02-16T06:11:11;4.45;;;1.73;;
69256;SDS011;56376;53.356;-1.748;2024-02-16T06:13:38;5.70;;;1.80;;
69256;SDS011;56376;53.356;-1.748;2024-02-16T06:16:07;6.05;;;1.85;;
69256;SDS011;56376;53.356;-1.748;2024-02-16T06:18:34;4.40;;;2.10;;
69256;SDS011;56376;53.356;-1.748;2024-02-16T06:21:00;3.92;;;1.77;;
69256;SDS011;56376;53.356;-1.748;2024-02-16T06:23:25;4.28;;;1.50;;
69256;SDS011;56376;53.356;-1.748;2024-02-16T06:25:51;5.00;;;1.90;;
69256;SDS011;56376;53.356;-1.748;2024-02-16T06:28:16;3.60;;;2.10;;
69256;SDS011;56376;53.356;-1.748;2024-02-16T06:30:42;4.18;;;2.08;;
69256;SDS011;56376;53.356;-1.748;2024-02-16T06:33:08;3.50;;;2.10;;
69256;SDS011;56376;53.356;-1.748;2024-02-16T06:35:33;4.28;;;1.70;;
69256;SDS011;56376;53.356;-1.748;2024-02-16T06:37:58;5.05;;;1.80;;
69256;SDS011;56376;53.356;-1.748;2024-02-16T06:40:24;6.13;;;1.80;;
69256;SDS011;56376;53.356;-1.748;2024-02-16T06:42:51;3.28;;;1.30;;
69256;SDS011;56376;53.356;-1.748;2024-02-16T06:45:17;2.78;;;1.33;;
69256;SDS011;56376;53.356;-1.748;2024-02-16T06:47:42;2.97;;;1.50;;
69256;SDS011;56376;53.356;-1.748;2024-02-16T06:50:08;3.95;;;1.40;;
69256;SDS011;56376;53.356;-1.748;2024-02-16T06:52:34;3.47;;;1.40;;
69256;SDS011;56376;53.356;-1.748;2024-02-16T06:54:59;3.72;;;1.40;;
69256;SDS011;56376;53.356;-1.748;2024-02-16T06:57:25;3.53;;;1.83;;
69256;SDS011;56376;53.356;-1.748;2024-02-16T06:59:50;3.95;;;1.42;;
69256;SDS011;56376;53.356;-1.748;2024-02-16T07:02:18;3.05;;;1.70;;
69256;SDS011;56376;53.356;-1.748;2024-02-16T07:04:44;3.30;;;1.55;;
69256;SDS011;56376;53.356;-1.748;2024-02-16T07:07:10;4.68;;;1.63;;
69256;SDS011;56376;53.356;-1.748;2024-02-16T07:09:36;4.45;;;2.33;;
69256;SDS011;56376;53.356;-1.748;2024-02-16T07:12:05;4.95;;;1.83;;
69256;SDS011;56376;53.356;-1.748;2024-02-16T07:14:32;2.95;;;1.75;;
69256;SDS011;56376;53.356;-1.748;2024-02-16T07:16:58;3.85;;;1.58;;
69256;SDS011;56376;53.356;-1.748;2024-02-16T07:19:23;3.70;;;1.75;;
69256;SDS011;56376;53.356;-1.748;2024-02-16T07:21:50;5.50;;;1.98;;
69256;SDS011;56376;53.356;-1.748;2024-02-16T07:24:16;3.25;;;1.70;;
69256;SDS011;56376;53.356;-1.748;2024-02-16T07:26:43;4.53;;;1.90;;
69256;SDS011;56376;53.356;-1.748;2024-02-16T07:29:08;6.97;;;2.45;;
69256;SDS011;56376;53.356;-1.748;2024-02-16T07:31:34;3.75;;;2.38;;
69256;SDS011;56376;53.356;-1.748;2024-02-16T07:34:01;5.40;;;2.28;;
69256;SDS011;56376;53.356;-1.748;2024-02-16T07:36:26;5.60;;;2.42;;
69256;SDS011;56376;53.356;-1.748;2024-02-16T07:38:52;8.82;;;2.95;;
69256;SDS011;56376;53.356;-1.748;2024-02-16T07:41:17;4.53;;;2.20;;
69256;SDS011;56376;53.356;-1.748;2024-02-16T07:43:45;6.53;;;2.45;;
69256;SDS011;56376;53.356;-1.748;2024-02-16T07:46:10;4.28;;;2.53;;
69256;SDS011;56376;53.356;-1.748;2024-02-16T07:48:36;9.98;;;3.85;;
69256;SDS011;56376;53.356;-1.748;2024-02-16T07:51:01;7.10;;;2.80;;
69256;SDS011;56376;53.356;-1.748;2024-02-16T07:53:30;10.30;;;3.30;;
69256;SDS011;56376;53.356;-1.748;2024-02-16T07:55:56;7.72;;;3.15;;
69256;SDS011;56376;53.356;-1.748;2024-02-16T07:58:23;9.27;;;2.13;;
69256;SDS011;56376;53.356;-1.748;2024-02-16T08:00:49;4.03;;;2.40;;
69256;SDS011;56376;53.356;-1.748;2024-02-16T08:03:16;8.55;;;2.75;;
69256;SDS011;56376;53.356;-1.748;2024-02-16T08:05:41;7.43;;;3.30;;
69256;SDS011;56376;53.356;-1.748;2024-02-16T08:08:07;7.90;;;3.28;;
69256;SDS011;56376;53.356;-1.748;2024-02-16T08:10:32;6.47;;;2.55;;
69256;SDS011;56376;53.356;-1.748;2024-02-16T08:12:58;5.95;;;2.10;;
69256;SDS011;56376;53.356;-1.748;2024-02-16T08:15:23;3.83;;;2.00;;
69256;SDS011;56376;53.356;-1.748;2024-02-16T08:17:50;10.07;;;2.70;;
69256;SDS011;56376;53.356;-1.748;2024-02-16T08:20:17;6.88;;;2.55;;
69256;SDS011;56376;53.356;-1.748;2024-02-16T08:22:42;4.95;;;2.42;;
69256;SDS011;56376;53.356;-1.748;2024-02-16T08:25:08;7.85;;;2.90;;
69256;SDS011;56376;53.356;-1.748;2024-02-16T08:27:34;5.93;;;2.40;;
69256;SDS011;56376;53.356;-1.748;2024-02-16T08:30:03;4.63;;;2.63;;
69256;SDS011;56376;53.356;-1.748;2024-02-16T08:32:29;6.82;;;2.33;;
69256;SDS011;56376;53.356;-1.748;2024-02-16T08:34:55;5.05;;;2.80;;
69256;SDS011;56376;53.356;-1.748;2024-02-16T08:37:21;4.18;;;2.20;;
69256;SDS011;56376;53.356;-1.748;2024-02-16T08:39:47;5.95;;;2.58;;
69256;SDS011;56376;53.356;-1.748;2024-02-16T08:42:13;4.40;;;2.60;;
69256;SDS011;56376;53.356;-1.748;2024-02-16T08:44:39;4.20;;;2.55;;
69256;SDS011;56376;53.356;-1.748;2024-02-16T08:47:05;10.85;;;3.17;;
69256;SDS011;56376;53.356;-1.748;2024-02-16T08:49:32;12.00;;;4.43;;
69256;SDS011;56376;53.356;-1.748;2024-02-16T08:51:58;7.03;;;3.22;;
69256;SDS011;56376;53.356;-1.748;2024-02-16T08:54:25;6.45;;;3.88;;
69256;SDS011;56376;53.356;-1.748;2024-02-16T08:56:51;5.47;;;3.58;;
69256;SDS011;56376;53.356;-1.748;2024-02-16T08:59:18;6.95;;;3.70;;
69256;SDS011;56376;53.356;-1.748;2024-02-16T09:01:43;7.78;;;3.30;;
69256;SDS011;56376;53.356;-1.748;2024-02-16T09:04:10;6.43;;;4.15;;
69256;SDS011;56376;53.356;-1.748;2024-02-16T09:06:35;7.63;;;5.43;;
69256;SDS011;56376;53.356;-1.748;2024-02-16T09:09:01;8.70;;;5.88;;
69256;SDS011;56376;53.356;-1.748;2024-02-16T09:11:27;7.35;;;5.53;;
69256;SDS011;56376;53.356;-1.748;2024-02-16T09:13:54;6.57;;;5.20;;
69256;SDS011;56376;53.356;-1.748;2024-02-16T09:16:19;6.03;;;5.38;;
69256;SDS011;56376;53.356;-1.748;2024-02-16T09:18:45;10.63;;;6.75;;
69256;SDS011;56376;53.356;-1.748;2024-02-16T09:21:13;6.45;;;5.60;;
69256;SDS011;56376;53.356;-1.748;2024-02-16T09:23:39;5.88;;;5.30;;
69256;SDS011;56376;53.356;-1.748;2024-02-16T09:26:05;6.90;;;5.38;;
69256;SDS011;56376;53.356;-1.748;2024-02-16T09:28:31;8.32;;;6.13;;
69256;SDS011;56376;53.356;-1.748;2024-02-16T09:30:57;6.38;;;5.25;;
69256;SDS011;56376;53.356;-1.748;2024-02-16T09:33:23;6.93;;;4.75;;
69256;SDS011;56376;53.356;-1.748;2024-02-16T09:35:52;6.05;;;5.30;;
69256;SDS011;56376;53.356;-1.748;2024-02-16T09:38:18;5.32;;;3.78;;
69256;SDS011;56376;53.356;-1.748;2024-02-16T09:40:44;4.10;;;3.67;;
69256;SDS011;56376;53.356;-1.748;2024-02-16T09:43:10;3.50;;;3.20;;
69256;SDS011;56376;53.356;-1.748;2024-02-16T09:45:36;3.10;;;2.78;;
69256;SDS011;56376;53.356;-1.748;2024-02-16T09:48:02;2.92;;;2.58;;
69256;SDS011;56376;53.356;-1.748;2024-02-16T09:50:32;2.47;;;2.20;;
69256;SDS011;56376;53.356;-1.748;2024-02-16T09:53:00;2.50;;;2.30;;
69256;SDS011;56376;53.356;-1.748;2024-02-16T09:55:30;5.97;;;3.90;;
69256;SDS011;56376;53.356;-1.748;2024-02-16T09:57:59;4.70;;;3.15;;
69256;SDS011;56376;53.356;-1.748;2024-02-16T10:00:25;3.30;;;3.00;;
69256;SDS011;56376;53.356;-1.748;2024-02-16T10:02:51;5.35;;;4.15;;
69256;SDS011;56376;53.356;-1.748;2024-02-16T10:05:19;6.65;;;4.53;;
69256;SDS011;56376;53.356;-1.748;2024-02-16T10:07:46;5.28;;;3.28;;
69256;SDS011;56376;53.356;-1.748;2024-02-16T10:10:25;2.97;;;2.53;;
69256;SDS011;56376;53.356;-1.748;2024-02-16T10:13:03;5.47;;;3.00;;
69256;SDS011;56376;53.356;-1.748;2024-02-16T10:15:30;5.55;;;2.42;;
69256;SDS011;56376;53.356;-1.748;2024-02-16T10:17:59;4.63;;;2.13;;
69256;SDS011;56376;53.356;-1.748;2024-02-16T10:20:29;4.35;;;2.05;;
69256;SDS011;56376;53.356;-1.748;2024-02-16T10:23:05;3.30;;;2.00;;
69256;SDS011;56376;53.356;-1.748;2024-02-16T10:25:31;4.15;;;2.55;;
69256;SDS011;56376;53.356;-1.748;2024-02-16T10:27:57;4.32;;;2.17;;
69256;SDS011;56376;53.356;-1.748;2024-02-16T10:30:27;2.70;;;2.35;;
69256;SDS011;56376;53.356;-1.748;2024-02-16T10:32:57;4.15;;;2.28;;
69256;SDS011;56376;53.356;-1.748;2024-02-16T10:35:24;3.63;;;2.13;;
69256;SDS011;56376;53.356;-1.748;2024-02-16T10:37:51;3.03;;;2.20;;
69256;SDS011;56376;53.356;-1.748;2024-02-16T10:40:18;3.35;;;2.22;;
69256;SDS011;56376;53.356;-1.748;2024-02-16T10:42:46;4.75;;;2.50;;
69256;SDS011;56376;53.356;-1.748;2024-02-16T10:45:15;4.93;;;2.75;;
69256;SDS011;56376;53.356;-1.748;2024-02-16T10:47:42;3.15;;;2.25;;
69256;SDS011;56376;53.356;-1.748;2024-02-16T10:50:07;4.25;;;2.63;;
69256;SDS011;56376;53.356;-1.748;2024-02-16T10:52:36;3.35;;;2.40;;
69256;SDS011;56376;53.356;-1.748;2024-02-16T10:55:04;4.75;;;2.50;;
69256;SDS011;56376;53.356;-1.748;2024-02-16T10:57:30;2.70;;;2.30;;
69256;SDS011;56376;53.356;-1.748;2024-02-16T10:59:58;4.35;;;2.83;;
69256;SDS011;56376;53.356;-1.748;2024-02-16T11:02:25;6.18;;;2.85;;
69256;SDS011;56376;53.356;-1.748;2024-02-16T11:04:51;3.85;;;2.90;;
69256;SDS011;56376;53.356;-1.748;2024-02-16T11:07:18;6.28;;;3.55;;
69256;SDS011;56376;53.356;-1.748;2024-02-16T11:09:45;4.00;;;2.40;;
69256;SDS011;56376;53.356;-1.748;2024-02-16T11:12:12;3.28;;;2.63;;
69256;SDS011;56376;53.356;-1.748;2024-02-16T11:14:42;4.65;;;3.50;;
69256;SDS011;56376;53.356;-1.748;2024-02-16T11:17:11;4.97;;;3.20;;
69256;SDS011;56376;53.356;-1.748;2024-02-16T11:19:45;4.25;;;3.80;;
69256;SDS011;56376;53.356;-1.748;2024-02-16T11:22:14;5.60;;;4.07;;
69256;SDS011;56376;53.356;-1.748;2024-02-16T11:24:47;7.25;;;5.38;;
69256;SDS011;56376;53.356;-1.748;2024-02-16T11:27:16;6.70;;;5.47;;
69256;SDS011;56376;53.356;-1.748;2024-02-16T11:29:44;6.70;;;6.10;;
69256;SDS011;56376;53.356;-1.748;2024-02-16T11:32:11;6.82;;;5.85;;
69256;SDS011;56376;53.356;-1.748;2024-02-16T11:34:37;6.95;;;5.18;;
69256;SDS011;56376;53.356;-1.748;2024-02-16T11:37:05;6.35;;;3.53;;
69256;SDS011;56376;53.356;-1.748;2024-02-16T11:39:32;4.63;;;3.15;;
69256;SDS011;56376;53.356;-1.748;2024-02-16T11:42:01;5.10;;;3.10;;
69256;SDS011;56376;53.356;-1.748;2024-02-16T11:44:29;5.10;;;3.08;;
69256;SDS011;56376;53.356;-1.748;2024-02-16T11:46:59;3.13;;;2.80;;
69256;SDS011;56376;53.356;-1.748;2024-02-16T11:49:25;4.57;;;2.92;;
69256;SDS011;56376;53.356;-1.748;2024-02-16T11:51:51;4.53;;;3.28;;
69256;SDS011;56376;53.356;-1.748;2024-02-16T11:54:18;3.83;;;3.50;;
69256;SDS011;56376;53.356;-1.748;2024-02-16T11:56:44;4.40;;;3.78;;
69256;SDS011;56376;53.356;-1.748;2024-02-16T11:59:16;3.72;;;3.30;;
69256;SDS011;56376;53.356;-1.748;2024-02-16T12:01:52;4.68;;;4.15;;
69256;SDS011;56376;53.356;-1.748;2024-02-16T12:06:51;3.88;;;3.50;;
69256;SDS011;56376;53.356;-1.748;2024-02-16T12:09:18;4.10;;;3.35;;
69256;SDS011;56376;53.356;-1.748;2024-02-16T12:11:45;4.28;;;3.78;;
69256;SDS011;56376;53.356;-1.748;2024-02-16T12:14:11;4.43;;;3.85;;
69256;SDS011;56376;53.356;-1.748;2024-02-16T12:16:37;4.70;;;3.88;;
69256;SDS011;56376;53.356;-1.748;2024-02-16T12:19:04;4.03;;;3.63;;
69256;SDS011;56376;53.356;-1.748;2024-02-16T12:21:30;4.78;;;4.28;;
69256;SDS011;56376;53.356;-1.748;2024-02-16T12:23:58;4.95;;;4.53;;
69256;SDS011;56376;53.356;-1.748;2024-02-16T12:26:23;5.88;;;5.32;;
69256;SDS011;56376;53.356;-1.748;2024-02-16T12:28:49;5.50;;;5.00;;
69256;SDS011;56376;53.356;-1.748;2024-02-16T12:31:19;7.10;;;4.72;;
69256;SDS011;56376;53.356;-1.748;2024-02-16T12:33:45;4.50;;;4.10;;
69256;SDS011;56376;53.356;-1.748;2024-02-16T12:36:11;4.30;;;3.90;;
69256;SDS011;56376;53.356;-1.748;2024-02-16T12:38:36;4.68;;;3.88;;
69256;SDS011;56376;53.356;-1.748;2024-02-16T12:41:02;3.03;;;2.83;;
69256;SDS011;56376;53.356;-1.748;2024-02-16T12:43:27;3.35;;;2.80;;
69256;SDS011;56376;53.356;-1.748;2024-02-16T12:45:53;1.30;;;1.20;;
69256;SDS011;56376;53.356;-1.748;2024-02-16T12:48:18;2.28;;;1.30;;
69256;SDS011;56376;53.356;-1.748;2024-02-16T12:50:45;1.15;;;1.05;;
69256;SDS011;56376;53.356;-1.748;2024-02-16T12:53:12;0.80;;;0.80;;
69256;SDS011;56376;53.356;-1.748;2024-02-16T12:55:37;0.95;;;0.93;;
69256;SDS011;56376;53.356;-1.748;2024-02-16T12:58:03;1.02;;;0.80;;
69256;SDS011;56376;53.356;-1.748;2024-02-16T13:00:29;1.25;;;1.10;;
69256;SDS011;56376;53.356;-1.748;2024-02-16T13:02:55;1.10;;;0.93;;
69256;SDS011;56376;53.356;-1.748;2024-02-16T13:05:20;2.45;;;1.05;;
69256;SDS011;56376;53.356;-1.748;2024-02-16T13:07:46;1.25;;;0.98;;
69256;SDS011;56376;53.356;-1.748;2024-02-16T13:10:12;2.05;;;1.20;;
69256;SDS011;56376;53.356;-1.748;2024-02-16T13:12:37;1.48;;;0.70;;
69256;SDS011;56376;53.356;-1.748;2024-02-16T13:15:04;0.80;;;0.60;;
69256;SDS011;56376;53.356;-1.748;2024-02-16T13:17:31;1.00;;;0.70;;
69256;SDS011;56376;53.356;-1.748;2024-02-16T13:19:58;0.85;;;0.52;;
69256;SDS011;56376;53.356;-1.748;2024-02-16T13:22:32;1.08;;;0.90;;
69256;SDS011;56376;53.356;-1.748;2024-02-16T13:24:58;0.70;;;0.70;;
69256;SDS011;56376;53.356;-1.748;2024-02-16T13:27:24;0.70;;;0.65;;
69256;SDS011;56376;53.356;-1.748;2024-02-16T13:29:50;0.70;;;0.70;;
69256;SDS011;56376;53.356;-1.748;2024-02-16T13:32:15;1.27;;;0.60;;
69256;SDS011;56376;53.356;-1.748;2024-02-16T13:34:40;0.60;;;0.60;;
69256;SDS011;56376;53.356;-1.748;2024-02-16T13:37:06;1.80;;;0.88;;
69256;SDS011;56376;53.356;-1.748;2024-02-16T13:39:31;0.75;;;0.75;;
69256;SDS011;56376;53.356;-1.748;2024-02-16T13:41:57;0.60;;;0.60;;
69256;SDS011;56376;53.356;-1.748;2024-02-16T13:44:23;1.00;;;0.65;;
69256;SDS011;56376;53.356;-1.748;2024-02-16T13:46:50;0.65;;;0.65;;
69256;SDS011;56376;53.356;-1.748;2024-02-16T13:49:15;0.70;;;0.70;;
69256;SDS011;56376;53.356;-1.748;2024-02-16T13:51:41;1.13;;;0.90;;
69256;SDS011;56376;53.356;-1.748;2024-02-16T13:54:07;1.00;;;0.80;;
69256;SDS011;56376;53.356;-1.748;2024-02-16T13:56:33;2.40;;;0.70;;
69256;SDS011;56376;53.356;-1.748;2024-02-16T13:59:00;0.80;;;0.60;;
69256;SDS011;56376;53.356;-1.748;2024-02-16T14:01:27;0.55;;;0.52;;
69256;SDS011;56376;53.356;-1.748;2024-02-16T14:03:53;1.40;;;0.50;;
69256;SDS011;56376;53.356;-1.748;2024-02-16T14:06:18;0.52;;;0.52;;
69256;SDS011;56376;53.356;-1.748;2024-02-16T14:08:44;0.80;;;0.80;;
69256;SDS011;56376;53.356;-1.748;2024-02-16T14:11:09;1.17;;;1.08;;
69256;SDS011;56376;53.356;-1.748;2024-02-16T14:13:37;0.82;;;0.80;;
69256;SDS011;56376;53.356;-1.748;2024-02-16T14:16:02;0.90;;;0.90;;
69256;SDS011;56376;53.356;-1.748;2024-02-16T14:18:28;0.80;;;0.80;;
69256;SDS011;56376;53.356;-1.748;2024-02-16T14:20:53;0.77;;;0.77;;
69256;SDS011;56376;53.356;-1.748;2024-02-16T14:23:19;0.50;;;0.50;;
69256;SDS011;56376;53.356;-1.748;2024-02-16T14:25:45;1.83;;;0.93;;
69256;SDS011;56376;53.356;-1.748;2024-02-16T14:28:12;1.70;;;0.90;;
69256;SDS011;56376;53.356;-1.748;2024-02-16T14:30:38;0.63;;;0.60;;